createdAt,value
2023-03-15T00:00:22.630Z,12
2023-03-15T00:01:21.653Z,12.89
2023-03-15T00:02:21.748Z,13
2023-03-15T00:03:21.516Z,11.69
2023-03-15T00:04:21.652Z,10.69
2023-03-15T00:05:22.012Z,12.69
2023-03-15T00:06:21.328Z,13.60
2023-03-15T00:07:21.715Z,11.89
2023-03-15T00:08:21.286Z,12.89
2023-03-15T00:09:21.914Z,12.60
2023-03-15T00:10:21.583Z,11.80
2023-03-15T00:11:21.907Z,14.5
2023-03-15T00:12:21.674Z,9.5
2023-03-15T00:13:21.308Z,13.10
2023-03-15T00:14:21.455Z,13.19
2023-03-15T00:15:21.982Z,12
2023-03-15T00:16:22.195Z,11.39
2023-03-15T00:17:21.829Z,12.89
2023-03-15T00:18:21.485Z,12.80
2023-03-15T00:19:21.446Z,11.5
2023-03-15T00:20:22.149Z,11.80
2023-03-15T00:21:22.210Z,11.19
2023-03-15T00:22:21.864Z,10.69
2023-03-15T00:23:21.541Z,11.69
2023-03-15T00:24:24.965Z,11.80
2023-03-15T00:25:21.596Z,10.80
2023-03-15T00:26:21.093Z,13
2023-03-15T00:27:21.369Z,10.89
2023-03-15T00:28:21.749Z,11.30
2023-03-15T00:29:21.837Z,11.5
2023-03-15T00:30:21.977Z,10.60
2023-03-15T00:31:21.717Z,11.69
2023-03-15T00:32:21.397Z,12.30
2023-03-15T00:33:21.622Z,11.5
2023-03-15T00:34:21.711Z,12.89
2023-03-15T00:35:21.448Z,10.30
2023-03-15T00:36:21.883Z,12.60
2023-03-15T00:37:21.279Z,12.80
2023-03-15T00:38:21.638Z,14
2023-03-15T00:39:21.666Z,11.89
2023-03-15T00:40:22.106Z,11.10
2023-03-15T00:41:21.482Z,11.39
2023-03-15T00:42:21.796Z,12.19
2023-03-15T00:43:21.193Z,13.10
2023-03-15T00:44:21.524Z,13.80
2023-03-15T00:45:22.470Z,10.89
2023-03-15T00:46:21.630Z,12.19
2023-03-15T00:47:21.695Z,12.39
2023-03-15T00:48:21.328Z,10.19
2023-03-15T00:49:21.693Z,11.69
2023-03-15T00:50:21.978Z,12.10
2023-03-15T00:51:21.624Z,11.39
2023-03-15T00:53:21.355Z,12.10
2023-03-15T00:54:21.760Z,12.5
2023-03-15T00:55:21.161Z,13.19
2023-03-15T00:56:21.428Z,11.39
2023-03-15T00:57:21.056Z,12.30
2023-03-15T00:58:23.486Z,10.5
2023-03-15T00:59:21.568Z,11.89
2023-03-15T01:00:22.869Z,13.30
2023-03-15T01:01:25.245Z,10.60
2023-03-15T01:02:21.870Z,13.39
2023-03-15T01:03:21.465Z,14.10
2023-03-15T01:04:21.478Z,10.89
2023-03-15T01:05:22.436Z,11
2023-03-15T01:06:21.985Z,12.5
2023-03-15T01:07:21.271Z,10.10
2023-03-15T01:08:21.530Z,13.5
2023-03-15T01:09:21.899Z,10.80
2023-03-15T01:10:21.945Z,14.80
2023-03-15T01:11:21.188Z,10.60
2023-03-15T01:12:21.726Z,12.10
2023-03-15T01:13:21.832Z,10.39
2023-03-15T01:14:21.364Z,12.30
2023-03-15T01:15:22.009Z,11.30
2023-03-15T01:16:21.357Z,12.10
2023-03-15T01:17:22.067Z,10
2023-03-15T01:18:21.862Z,12.10
2023-03-15T01:19:21.554Z,9.699
2023-03-15T01:20:21.749Z,9.5
2023-03-15T01:21:21.504Z,11.60
2023-03-15T01:22:21.761Z,11.39
2023-03-15T01:23:21.214Z,9.600
2023-03-15T01:24:21.353Z,12.89
2023-03-15T01:25:22.015Z,10.80
2023-03-15T01:26:21.357Z,11.80
2023-03-15T01:27:21.564Z,10.60
2023-03-15T01:28:20.988Z,8.600
2023-03-15T01:29:21.380Z,9.399
2023-03-15T01:30:22.386Z,10.60
2023-03-15T01:31:21.708Z,10.19
2023-03-15T01:32:21.689Z,11.60
2023-03-15T01:33:21.127Z,11.80
2023-03-15T01:34:21.589Z,9
2023-03-15T01:35:22.421Z,10.10
2023-03-15T01:36:21.972Z,11.19
2023-03-15T01:37:21.638Z,9.800
2023-03-15T01:38:21.402Z,9.399
2023-03-15T01:39:21.741Z,10.5
2023-03-15T01:40:21.605Z,9.300
2023-03-15T01:41:21.507Z,11.80
2023-03-15T01:42:21.624Z,11
2023-03-15T01:43:21.834Z,10.60
2023-03-15T01:44:21.354Z,9.699
2023-03-15T01:45:21.861Z,11.30
2023-03-15T01:46:21.799Z,11.80
2023-03-15T01:47:21.320Z,9.199
2023-03-15T01:48:21.660Z,12.39
2023-03-15T01:49:21.420Z,10.80
2023-03-15T01:50:21.690Z,9
2023-03-15T01:51:22.060Z,10.69
2023-03-15T01:52:21.238Z,9.199
2023-03-15T01:53:21.259Z,12.10
2023-03-15T01:54:21.536Z,9.399
2023-03-15T01:55:21.850Z,11
2023-03-15T01:57:21.528Z,10
2023-03-15T01:58:21.384Z,8.199
2023-03-15T01:59:21.912Z,10.19
2023-03-15T02:00:22.267Z,9.600
2023-03-15T02:01:21.439Z,10.19
2023-03-15T02:02:21.183Z,9.5
2023-03-15T02:03:21.554Z,9.699
2023-03-15T02:04:22.317Z,12.30
2023-03-15T02:05:22.240Z,10
2023-03-15T02:06:21.240Z,11.5
2023-03-15T02:07:21.544Z,9.800
2023-03-15T02:08:21.987Z,9.399
2023-03-15T02:09:21.734Z,10.10
2023-03-15T02:10:22.196Z,11
2023-03-15T02:11:21.400Z,11.10
2023-03-15T02:12:21.865Z,8.300
2023-03-15T02:13:21.652Z,11.10
2023-03-15T02:14:21.264Z,9.100
2023-03-15T02:15:21.956Z,9
2023-03-15T02:16:21.430Z,10.89
2023-03-15T02:17:21.519Z,9.5
2023-03-15T02:18:21.370Z,9.399
2023-03-15T02:19:20.958Z,10.69
2023-03-15T02:20:21.712Z,11.30
2023-03-15T02:21:21.773Z,9.600
2023-03-15T02:22:21.669Z,8.600
2023-03-15T02:23:22.086Z,10.10
2023-03-15T02:24:21.666Z,10.39
2023-03-15T02:25:21.450Z,7.800
2023-03-15T02:26:21.642Z,9.899
2023-03-15T02:27:21.649Z,8.899
2023-03-15T02:28:35.452Z,9.899
2023-03-15T02:29:21.845Z,11.10
2023-03-15T02:30:21.491Z,9.899
2023-03-15T02:31:21.090Z,10.30
2023-03-15T02:32:21.685Z,8.199
2023-03-15T02:33:21.111Z,10
2023-03-15T02:34:21.564Z,10.80
2023-03-15T02:35:21.787Z,10
2023-03-15T02:36:21.324Z,11.30
2023-03-15T02:37:21.449Z,8.300
2023-03-15T02:38:21.812Z,8.600
2023-03-15T02:39:20.936Z,9.600
2023-03-15T02:40:21.439Z,9.199
2023-03-15T02:41:21.631Z,12.10
2023-03-15T02:42:21.740Z,9.399
2023-03-15T02:43:21.616Z,10.19
2023-03-15T02:44:21.511Z,10.10
2023-03-15T02:45:22.361Z,11.30
2023-03-15T02:46:21.634Z,7.099
2023-03-15T02:47:21.881Z,7.599
2023-03-15T02:48:21.271Z,8.899
2023-03-15T02:49:21.484Z,9.399
2023-03-15T02:50:21.943Z,10.10
2023-03-15T02:51:21.056Z,8.800
2023-03-15T02:52:21.453Z,7.900
2023-03-15T02:53:21.527Z,8.899
2023-03-15T02:54:21.571Z,9.300
2023-03-15T02:55:21.634Z,10.60
2023-03-15T02:56:21.305Z,9.199
2023-03-15T02:57:21.020Z,9.399
2023-03-15T02:58:21.274Z,10
2023-03-15T02:59:20.817Z,7.699
2023-03-15T03:00:22.618Z,8.800
2023-03-15T03:01:21.427Z,9.899
2023-03-15T03:02:21.674Z,7.300
2023-03-15T03:03:21.760Z,6.800
2023-03-15T03:04:21.430Z,7.5
2023-03-15T03:05:21.853Z,9
2023-03-15T03:06:21.480Z,9.399
2023-03-15T03:07:21.114Z,9.300
2023-03-15T03:08:21.431Z,9.600
2023-03-15T03:09:21.207Z,8.199
2023-03-15T03:10:21.245Z,11.10
2023-03-15T03:11:21.427Z,7.099
2023-03-15T03:12:21.283Z,6.199
2023-03-15T03:13:21.240Z,9.5
2023-03-15T03:14:21.290Z,7.599
2023-03-15T03:15:22.121Z,9.800
2023-03-15T03:16:21.628Z,8.600
2023-03-15T03:17:21.681Z,8.699
2023-03-15T03:18:21.514Z,9.699
2023-03-15T03:19:21.176Z,10.19
2023-03-15T03:20:21.134Z,8.399
2023-03-15T03:21:21.295Z,9.800
2023-03-15T03:22:21.221Z,6
2023-03-15T03:23:20.927Z,7.400
2023-03-15T03:24:21.531Z,8.5
2023-03-15T03:25:21.728Z,7.099
2023-03-15T03:26:21.407Z,6.900
2023-03-15T03:27:20.977Z,9.399
2023-03-15T03:28:21.208Z,10
2023-03-15T03:29:21.166Z,9.100
2023-03-15T03:30:22.003Z,8.399
2023-03-15T03:31:21.777Z,9.199
2023-03-15T03:32:21.145Z,8.300
2023-03-15T03:33:20.324Z,8.5
2023-03-15T03:34:21.124Z,7.699
2023-03-15T03:35:21.258Z,6.800
2023-03-15T03:36:20.796Z,6.5
2023-03-15T03:37:21.615Z,6.800
2023-03-15T03:38:21.410Z,5.900
2023-03-15T03:39:21.687Z,6.300
2023-03-15T03:40:21.638Z,6.199
2023-03-15T03:41:20.866Z,6.099
2023-03-15T03:42:21.637Z,5.400
2023-03-15T03:43:21.466Z,6.699
2023-03-15T03:44:21.294Z,6.400
2023-03-15T03:45:21.451Z,4.300
2023-03-15T03:46:21.738Z,6.900
2023-03-15T03:47:20.845Z,4.900
2023-03-15T03:48:21.716Z,6.300
2023-03-15T03:49:21.072Z,5.599
2023-03-15T03:50:21.366Z,5.199
2023-03-15T03:51:21.665Z,5.099
2023-03-15T03:53:21.301Z,4.800
2023-03-15T03:54:21.314Z,5.400
2023-03-15T03:55:21.302Z,6.699
2023-03-15T03:56:21.233Z,6.300
2023-03-15T03:57:21.336Z,6.800
2023-03-15T03:58:21.591Z,4.900
2023-03-15T03:59:21.251Z,6.099
2023-03-15T04:00:22.345Z,4.099
2023-03-15T04:02:21.642Z,6.800
2023-03-15T04:03:20.869Z,6
2023-03-15T04:04:21.154Z,5.699
2023-03-15T04:05:21.829Z,5.199
2023-03-15T04:06:21.471Z,5.099
2023-03-15T04:07:21.260Z,4.199
2023-03-15T04:09:21.835Z,4.800
2023-03-15T04:10:21.645Z,5.099
2023-03-15T04:11:21.561Z,4.400
2023-03-15T04:13:21.229Z,4.900
2023-03-15T04:14:21.459Z,4
2023-03-15T04:15:21.663Z,4.599
2023-03-15T04:16:21.198Z,5.400
2023-03-15T04:17:21.476Z,3.299
2023-03-15T04:18:21.120Z,4.199
2023-03-15T04:19:21.247Z,4.300
2023-03-15T04:20:21.884Z,2.700
2023-03-15T04:21:20.922Z,4.400
2023-03-15T04:22:21.728Z,2.5
2023-03-15T04:23:21.831Z,2.099
2023-03-15T04:24:21.692Z,1.700
2023-03-15T04:25:21.430Z,1.299
2023-03-15T04:26:21.726Z,2.099
2023-03-15T04:27:20.992Z,1.899
2023-03-15T04:28:21.410Z,1
2023-03-15T04:29:21.818Z,0.899
2023-03-15T04:30:21.309Z,1
2023-03-15T04:31:21.150Z,1.700
2023-03-15T04:32:21.333Z,0.899
2023-03-15T04:33:21.092Z,0.400
2023-03-15T04:34:21.976Z,0.699
2023-03-15T04:35:27.045Z,1.100
2023-03-15T04:36:21.348Z,0.699
2023-03-15T04:37:21.593Z,0.899
2023-03-15T04:40:21.193Z,1.200
2023-03-15T04:41:21.199Z,0.400
2023-03-15T04:42:21.618Z,0.899
2023-03-15T04:43:21.604Z,0.300
2023-03-15T04:45:21.670Z,0.5
2023-03-15T04:46:22.962Z,0.600
2023-03-15T04:47:21.618Z,0.400
2023-03-15T04:48:21.234Z,0.800
2023-03-15T04:49:35.679Z,0.699
2023-03-15T04:50:21.985Z,0.300
2023-03-15T04:51:21.289Z,1
2023-03-15T04:52:21.328Z,0.300
2023-03-15T04:53:21.520Z,0.800
2023-03-15T04:54:21.317Z,0.699
2023-03-15T04:55:21.709Z,0.300
2023-03-15T04:58:21.807Z,0.699
2023-03-15T04:59:21.164Z,0.600
2023-03-15T05:01:35.918Z,1.200
2023-03-15T05:02:21.875Z,0.400
2023-03-15T05:03:21.535Z,0.5
2023-03-15T05:04:21.499Z,1
2023-03-15T05:05:22.084Z,0.899
2023-03-15T05:06:21.240Z,1
2023-03-15T05:07:21.514Z,0.699
2023-03-15T05:09:22.052Z,0.5
2023-03-15T05:10:21.617Z,0.800
2023-03-15T05:12:21.827Z,1.299
2023-03-15T05:13:21.372Z,0.600
2023-03-15T05:14:21.890Z,0.699
2023-03-15T05:15:21.644Z,0.600
2023-03-15T05:16:21.930Z,0.699
2023-03-15T05:17:21.036Z,0.899
2023-03-15T05:18:21.137Z,1.299
2023-03-15T05:19:21.465Z,0.800
2023-03-15T05:20:21.395Z,0.899
2023-03-15T05:21:21.208Z,0.800
2023-03-15T05:22:21.026Z,0.600
2023-03-15T05:23:21.426Z,0.400
2023-03-15T05:24:21.610Z,1.399
2023-03-15T05:25:22.030Z,0.899
2023-03-15T05:26:21.743Z,0.699
2023-03-15T05:27:21.928Z,0.600
2023-03-15T05:28:21.774Z,1.200
2023-03-15T05:29:22.219Z,1.700
2023-03-15T05:30:22.324Z,1
2023-03-15T05:31:22.154Z,1.700
2023-03-15T05:32:21.600Z,1.799
2023-03-15T05:33:20.077Z,1.600
2023-03-15T05:34:21.164Z,1.799
2023-03-15T05:35:21.667Z,2.799
2023-03-15T05:36:21.923Z,2.200
2023-03-15T05:37:21.117Z,1.399
2023-03-15T05:38:21.606Z,2.200
2023-03-15T05:39:21.694Z,1.5
2023-03-15T05:40:21.051Z,1.299
2023-03-15T05:41:21.529Z,1.600
2023-03-15T05:43:21.366Z,1.100
2023-03-15T05:45:21.841Z,1.799
2023-03-15T05:46:21.297Z,1
2023-03-15T05:47:21.662Z,1.600
2023-03-15T05:48:21.184Z,0.699
2023-03-15T05:49:21.329Z,1.799
2023-03-15T05:50:22.060Z,2
2023-03-15T05:52:21.263Z,1.200
2023-03-15T05:53:21.701Z,1.299
2023-03-15T05:54:21.413Z,1.600
2023-03-15T05:55:22.038Z,1.299
2023-03-15T05:56:21.979Z,1
2023-03-15T05:57:22.048Z,2.200
2023-03-15T05:58:21.747Z,1.5
2023-03-15T05:59:22.163Z,1.399
2023-03-15T06:00:22.794Z,0.899
2023-03-15T06:02:21.570Z,1.700
2023-03-15T06:03:21.562Z,2.099
2023-03-15T06:04:22.372Z,1.299
2023-03-15T06:06:21.462Z,1
2023-03-15T06:07:21.937Z,1.5
2023-03-15T06:08:21.528Z,0.800
2023-03-15T06:09:22.145Z,1.299
2023-03-15T06:10:22.145Z,1.700
2023-03-15T06:11:21.814Z,1.299
2023-03-15T06:12:21.455Z,0.899
2023-03-15T06:13:21.769Z,1.100
2023-03-15T06:14:21.956Z,1.200
2023-03-15T06:15:21.382Z,1.399
2023-03-15T06:16:21.394Z,1.600
2023-03-15T06:17:21.267Z,1.899
2023-03-15T06:18:21.633Z,2.700
2023-03-15T06:19:21.973Z,3.200
2023-03-15T06:20:22.087Z,3.599
2023-03-15T06:21:21.387Z,4.300
2023-03-15T06:22:21.469Z,2.599
2023-03-15T06:23:21.269Z,3.200
2023-03-15T06:24:21.368Z,2.299
2023-03-15T06:25:22.020Z,2.900
2023-03-15T06:26:21.308Z,2.700
2023-03-15T06:27:21.820Z,3.799
2023-03-15T06:28:21.522Z,3.700
2023-03-15T06:29:21.389Z,4.5
2023-03-15T06:30:22.195Z,3.700
2023-03-15T06:32:21.610Z,4.5
2023-03-15T06:33:21.190Z,4
2023-03-15T06:34:21.978Z,4.900
2023-03-15T06:35:21.991Z,5.099
2023-03-15T06:36:21.956Z,4.800
2023-03-15T06:37:34.118Z,4.599
2023-03-15T06:38:21.468Z,6
2023-03-15T06:39:21.629Z,4.900
2023-03-15T06:40:22.450Z,5.400
2023-03-15T06:41:21.715Z,4.900
2023-03-15T06:42:21.869Z,4.800
2023-03-15T06:43:21.405Z,4.599
2023-03-15T06:44:21.713Z,5.599
2023-03-15T06:45:21.862Z,4.300
2023-03-15T06:46:21.937Z,4.5
2023-03-15T06:47:21.396Z,4.599
2023-03-15T06:48:21.635Z,4.199
2023-03-15T06:49:21.512Z,4.5
2023-03-15T06:50:21.687Z,4.300
2023-03-15T06:51:21.557Z,5.300
2023-03-15T06:52:21.659Z,4.599
2023-03-15T06:54:22.868Z,4.5
2023-03-15T06:56:22.452Z,3.799
2023-03-15T06:58:26.419Z,4.400
2023-03-15T06:59:22.012Z,5.5
2023-03-15T07:00:27.503Z,5.099
2023-03-15T07:01:21.883Z,4.699
2023-03-15T07:02:27.010Z,5.199
2023-03-15T07:03:22.152Z,4.5
2023-03-15T07:04:21.716Z,5
2023-03-15T07:05:21.741Z,5.099
2023-03-15T07:06:26.996Z,5
2023-03-15T07:07:22.257Z,5.599
2023-03-15T07:08:22.116Z,5
2023-03-15T07:09:21.659Z,5.199
2023-03-15T07:10:22.336Z,4.699
2023-03-15T07:11:22.177Z,4.400
2023-03-15T07:12:22.189Z,4.900
2023-03-15T07:13:22.120Z,5.400
2023-03-15T07:14:22.509Z,4.400
2023-03-15T07:15:22.319Z,5
2023-03-15T07:16:21.804Z,4.699
2023-03-15T07:17:22.301Z,4.599
2023-03-15T07:18:22.496Z,5.300
2023-03-15T07:19:22.423Z,4.5
2023-03-15T07:20:37.888Z,5.300
2023-03-15T07:21:22.469Z,4.5
2023-03-15T07:22:22.310Z,4.900
2023-03-15T07:23:22.591Z,4.300
2023-03-15T07:24:22.335Z,4.900
2023-03-15T07:25:22.898Z,4.400
2023-03-15T07:26:22.267Z,4.300
2023-03-15T07:27:22.869Z,5.099
2023-03-15T07:28:36.679Z,5
2023-03-15T07:29:21.942Z,4.900
2023-03-15T07:30:23.609Z,5.199
2023-03-15T07:32:22.563Z,5
2023-03-15T07:33:22.689Z,6.400
2023-03-15T07:34:22.424Z,4.900
2023-03-15T07:35:22.425Z,5.800
2023-03-15T07:36:22.049Z,6.199
2023-03-15T07:37:22.434Z,5.599
2023-03-15T07:38:22.591Z,4.5
2023-03-15T07:39:22.137Z,4.900
2023-03-15T07:41:21.864Z,4.800
2023-03-15T07:42:22.028Z,4.599
2023-03-15T07:43:22.000Z,5.300
2023-03-15T07:44:22.251Z,4.800
2023-03-15T07:45:22.745Z,4.599
2023-03-15T07:46:22.597Z,4
2023-03-15T07:47:22.265Z,3.299
2023-03-15T07:48:22.338Z,3.400
2023-03-15T07:49:21.557Z,2.799
2023-03-15T07:50:22.069Z,3.200
2023-03-15T07:51:22.742Z,3.299
2023-03-15T07:52:22.246Z,3.200
2023-03-15T07:53:21.836Z,2.900
2023-03-15T07:54:22.655Z,3.799
2023-03-15T07:55:22.150Z,2.400
2023-03-15T07:56:22.224Z,3.599
2023-03-15T07:57:22.619Z,3.299
2023-03-15T07:58:21.861Z,3.200
2023-03-15T07:59:22.034Z,3.599
2023-03-15T08:00:24.293Z,2.900
2023-03-15T08:01:22.623Z,3.599
2023-03-15T08:02:22.903Z,3.099
2023-03-15T08:03:23.020Z,3.299
2023-03-15T08:04:22.316Z,3.700
2023-03-15T08:05:21.946Z,3
2023-03-15T08:06:22.310Z,3.599
2023-03-15T08:08:22.952Z,3.799
2023-03-15T08:09:22.939Z,3.299
2023-03-15T08:10:22.510Z,4.5
2023-03-15T08:11:22.347Z,4.900
2023-03-15T08:12:22.454Z,3.900
2023-03-15T08:13:21.842Z,4.199
2023-03-15T08:14:22.593Z,3.799
2023-03-15T08:16:22.184Z,4
2023-03-15T08:17:22.423Z,4.199
2023-03-15T08:18:22.669Z,4.5
2023-03-15T08:19:22.269Z,3.799
2023-03-15T08:20:21.844Z,4.300
2023-03-15T08:21:22.997Z,5.400
2023-03-15T08:22:22.954Z,3.700
2023-03-15T08:23:22.454Z,4.699
2023-03-15T08:24:22.076Z,5.199
2023-03-15T08:25:22.891Z,4
2023-03-15T08:27:22.177Z,4.099
2023-03-15T08:28:22.412Z,4.699
2023-03-15T08:29:22.648Z,4.800
2023-03-15T08:30:22.935Z,4.5
2023-03-15T08:31:22.627Z,4.400
2023-03-15T08:32:23.325Z,4.199
2023-03-15T08:33:22.439Z,5.099
2023-03-15T08:34:22.313Z,4.599
2023-03-15T08:35:22.532Z,4.400
2023-03-15T08:36:22.410Z,4.900
2023-03-15T08:37:22.427Z,5.300
2023-03-15T08:38:22.611Z,4.400
2023-03-15T08:39:22.104Z,5.400
2023-03-15T08:40:22.828Z,5.099
2023-03-15T08:41:22.243Z,4.300
2023-03-15T08:42:22.801Z,5.199
2023-03-15T08:43:22.373Z,5.099
2023-03-15T08:44:22.345Z,6.800
2023-03-15T08:45:22.843Z,5.400
2023-03-15T08:46:22.375Z,5.5
2023-03-15T08:47:22.488Z,5.199
2023-03-15T08:48:22.672Z,5
2023-03-15T08:49:22.670Z,6.099
2023-03-15T08:50:22.632Z,5.300
2023-03-15T08:51:22.076Z,5.800
2023-03-15T08:52:22.699Z,4.699
2023-03-15T08:54:21.942Z,5.599
2023-03-15T08:55:22.810Z,6.5
2023-03-15T08:56:21.954Z,6
2023-03-15T08:57:22.062Z,5.5
2023-03-15T08:58:22.364Z,5.900
2023-03-15T08:59:31.331Z,6.599
2023-03-15T09:00:23.650Z,5.5
2023-03-15T09:01:22.383Z,5.199
2023-03-15T09:02:22.563Z,5.599
2023-03-15T09:03:22.231Z,5.699
2023-03-15T09:04:22.240Z,4.300
2023-03-15T09:05:21.768Z,5.699
2023-03-15T09:06:22.412Z,4.800
2023-03-15T09:07:21.943Z,5.599
2023-03-15T09:08:21.917Z,5.699
2023-03-15T09:09:22.030Z,4.400
2023-03-15T09:11:22.701Z,5.5
2023-03-15T09:12:22.382Z,5.199
2023-03-15T09:13:22.026Z,4.900
2023-03-15T09:14:22.935Z,5.199
2023-03-15T09:15:24.068Z,4.300
2023-03-15T09:16:21.970Z,4
2023-03-15T09:17:22.016Z,5
2023-03-15T09:18:22.559Z,6
2023-03-15T09:19:21.946Z,4.5
2023-03-15T09:20:22.266Z,4.699
2023-03-15T09:21:22.326Z,4.599
2023-03-15T09:22:34.733Z,6.199
2023-03-15T09:23:21.849Z,5.800
2023-03-15T09:24:21.767Z,4.099
2023-03-15T09:25:26.604Z,6.300
2023-03-15T09:26:22.131Z,4.400
2023-03-15T09:27:22.078Z,4
2023-03-15T09:28:22.507Z,5.599
2023-03-15T09:29:21.705Z,4.300
2023-03-15T09:30:22.461Z,3.799
2023-03-15T09:31:26.835Z,4.5
2023-03-15T09:32:22.412Z,3.700
2023-03-15T09:33:22.118Z,4.400
2023-03-15T09:34:23.533Z,4
2023-03-15T09:35:22.010Z,4.5
2023-03-15T09:36:21.905Z,3.900
2023-03-15T09:38:21.552Z,4.199
2023-03-15T09:39:21.876Z,4.099
2023-03-15T09:40:22.380Z,4.5
2023-03-15T09:41:22.095Z,4.099
2023-03-15T09:42:22.285Z,5.400
2023-03-15T09:43:22.398Z,4.5
2023-03-15T09:44:21.763Z,5.300
2023-03-15T09:45:22.308Z,3.900
2023-03-15T09:46:22.398Z,4.199
2023-03-15T09:47:21.855Z,5.099
2023-03-15T09:48:21.936Z,7
2023-03-15T09:49:36.591Z,4
2023-03-15T09:50:22.429Z,5.099
2023-03-15T09:51:22.212Z,4.800
2023-03-15T09:53:21.782Z,4.699
2023-03-15T09:55:22.305Z,4.5
2023-03-15T09:56:22.234Z,5.099
2023-03-15T09:57:22.439Z,3.900
2023-03-15T09:58:22.669Z,4.199
2023-03-15T09:59:23.449Z,4.900
2023-03-15T10:00:24.269Z,5
2023-03-15T10:01:22.646Z,3.799
2023-03-15T10:02:23.367Z,5.800
2023-03-15T10:03:22.614Z,5.300
2023-03-15T10:04:22.446Z,5.800
2023-03-15T10:05:22.951Z,6.599
2023-03-15T10:06:22.707Z,7.400
2023-03-15T10:07:22.154Z,6.5
2023-03-15T10:08:22.384Z,5.599
2023-03-15T10:09:22.104Z,8.800
2023-03-15T10:10:23.188Z,6.800
2023-03-15T10:11:22.213Z,7.099
2023-03-15T10:12:23.129Z,7.400
2023-03-15T10:13:22.119Z,6.5
2023-03-15T10:14:22.333Z,7.599
2023-03-15T10:15:24.104Z,6.900
2023-03-15T10:16:22.809Z,6.800
2023-03-15T10:17:22.738Z,7.199
2023-03-15T10:18:22.979Z,7
2023-03-15T10:19:22.789Z,8.199
2023-03-15T10:20:23.008Z,6.699
2023-03-15T10:21:22.397Z,7.699
2023-03-15T10:22:22.581Z,7.599
2023-03-15T10:24:23.723Z,7.099
2023-03-15T10:25:22.888Z,8.5
2023-03-15T10:26:22.910Z,7.599
2023-03-15T10:28:24.232Z,6.400
2023-03-15T10:29:22.603Z,7.300
2023-03-15T10:30:23.585Z,7.199
2023-03-15T10:31:32.884Z,7.300
2023-03-15T10:32:22.033Z,6.599
2023-03-15T10:33:22.622Z,6.900
2023-03-15T10:34:21.844Z,6.599
2023-03-15T10:35:22.390Z,6.5
2023-03-15T10:36:22.020Z,5.900
2023-03-15T10:37:22.268Z,5.5
2023-03-15T10:38:22.094Z,6.900
2023-03-15T10:39:22.178Z,6.099
2023-03-15T10:40:22.316Z,5.699
2023-03-15T10:41:28.745Z,7.199
2023-03-15T10:42:22.402Z,6.099
2023-03-15T10:43:22.202Z,7.400
2023-03-15T10:45:22.399Z,5.5
2023-03-15T10:46:22.496Z,6.599
2023-03-15T10:47:24.379Z,7.099
2023-03-15T10:48:22.179Z,6.300
2023-03-15T10:49:22.723Z,7.599
2023-03-15T10:50:22.400Z,5.300
2023-03-15T10:51:22.244Z,7.699
2023-03-15T10:52:22.130Z,6.5
2023-03-15T10:54:22.626Z,5.900
2023-03-15T10:55:22.181Z,6.5
2023-03-15T10:56:22.508Z,5.699
2023-03-15T10:57:22.617Z,6.199
2023-03-15T10:58:22.648Z,6.599
2023-03-15T10:59:21.958Z,5.300
2023-03-15T11:00:23.430Z,5.599
2023-03-15T11:01:23.163Z,5.099
2023-03-15T11:02:23.598Z,5.199
2023-03-15T11:03:22.996Z,6.199
2023-03-15T11:04:23.394Z,5.599
2023-03-15T11:06:23.263Z,5.900
2023-03-15T11:06:27.182Z,4.5
2023-03-15T11:07:22.213Z,5.5
2023-03-15T11:08:21.719Z,6
2023-03-15T11:09:22.051Z,6.400
2023-03-15T11:10:22.973Z,5.400
2023-03-15T11:11:21.746Z,5.5
2023-03-15T11:12:22.621Z,6.300
2023-03-15T11:13:22.504Z,5.900
2023-03-15T11:14:22.284Z,5.800
2023-03-15T11:15:22.513Z,6.199
2023-03-15T11:16:22.369Z,5.400
2023-03-15T11:17:21.660Z,6.5
2023-03-15T11:18:22.075Z,5.900
2023-03-15T11:19:22.141Z,6.5
2023-03-15T11:20:23.036Z,6.800
2023-03-15T11:21:22.522Z,4.800
2023-03-15T11:22:21.830Z,5.800
2023-03-15T11:23:22.040Z,5.300
2023-03-15T11:24:22.412Z,6.400
2023-03-15T11:25:23.969Z,5.400
2023-03-15T11:26:32.345Z,4.800
2023-03-15T11:27:22.135Z,7.300
2023-03-15T11:28:21.798Z,5.300
2023-03-15T11:29:21.878Z,6.699
2023-03-15T11:30:22.359Z,5.300
2023-03-15T11:31:22.193Z,4.400
2023-03-15T11:32:22.257Z,4.699
2023-03-15T11:33:22.277Z,3.799
2023-03-15T11:34:22.464Z,3.700
2023-03-15T11:35:22.261Z,4.699
2023-03-15T11:36:22.455Z,4
2023-03-15T11:37:22.376Z,5.099
2023-03-15T11:38:22.193Z,4.300
2023-03-15T11:39:22.193Z,5.199
2023-03-15T11:40:22.282Z,4
2023-03-15T11:41:22.110Z,5.199
2023-03-15T11:42:22.529Z,4
2023-03-15T11:43:22.229Z,4.400
2023-03-15T11:45:22.547Z,3.799
2023-03-15T11:46:26.765Z,4.199
2023-03-15T11:47:22.509Z,4.699
2023-03-15T11:48:22.440Z,4.099
2023-03-15T11:49:22.121Z,5.599
2023-03-15T11:50:22.387Z,6.400
2023-03-15T11:51:21.651Z,4.900
2023-03-15T11:52:27.071Z,6.5
2023-03-15T11:53:21.868Z,5.800
2023-03-15T11:54:22.053Z,5.300
2023-03-15T11:55:22.556Z,4.800
2023-03-15T11:56:26.945Z,5.599
2023-03-15T11:57:22.224Z,6.300
2023-03-15T11:58:21.991Z,6.400
2023-03-15T11:59:21.777Z,5.199
2023-03-15T12:00:28.509Z,6.300
2023-03-15T12:01:22.539Z,4.300
2023-03-15T12:02:22.623Z,5.400
2023-03-15T12:03:23.098Z,5.699
2023-03-15T12:04:22.155Z,3.799
2023-03-15T12:05:22.393Z,5.800
2023-03-15T12:06:22.543Z,3.799
2023-03-15T12:07:22.215Z,4.300
2023-03-15T12:08:36.044Z,5.400
2023-03-15T12:09:25.094Z,5.699
2023-03-15T12:10:22.450Z,4.800
2023-03-15T12:11:22.347Z,6.400
2023-03-15T12:12:22.248Z,5.800
2023-03-15T12:14:22.396Z,3.599
2023-03-15T12:15:23.490Z,4.599
2023-03-15T12:16:35.826Z,4.099
2023-03-15T12:17:22.258Z,3.799
2023-03-15T12:18:22.260Z,5.900
2023-03-15T12:19:22.393Z,5.5
2023-03-15T12:20:22.502Z,5.099
2023-03-15T12:21:22.126Z,5.199
2023-03-15T12:22:41.272Z,3.900
2023-03-15T12:23:21.945Z,5.699
2023-03-15T12:24:22.455Z,5
2023-03-15T12:25:23.010Z,5.5
2023-03-15T12:26:41.737Z,4.199
2023-03-15T12:27:22.744Z,4.599
2023-03-15T12:29:21.874Z,5.199
2023-03-15T12:30:42.394Z,6.400
2023-03-15T12:31:22.355Z,5.800
2023-03-15T12:32:22.160Z,4.699
2023-03-15T12:33:22.654Z,4.599
2023-03-15T12:34:22.262Z,4.300
2023-03-15T12:35:22.628Z,3.400
2023-03-15T12:36:22.539Z,6
2023-03-15T12:37:22.259Z,4.5
2023-03-15T12:38:22.701Z,5.300
2023-03-15T12:39:22.155Z,5.099
2023-03-15T12:40:22.240Z,3.099
2023-03-15T12:41:22.668Z,3.400
2023-03-15T12:42:22.020Z,3
2023-03-15T12:43:22.461Z,4.199
2023-03-15T12:44:21.651Z,4.900
2023-03-15T12:45:22.723Z,3.299
2023-03-15T12:46:22.090Z,4.199
2023-03-15T12:47:22.577Z,4.400
2023-03-15T12:48:21.835Z,3.799
2023-03-15T12:49:22.192Z,4.199
2023-03-15T12:50:22.329Z,4.5
2023-03-15T12:51:22.671Z,3.799
2023-03-15T12:52:22.095Z,4.300
2023-03-15T12:53:22.593Z,6.599
2023-03-15T12:54:22.731Z,6.199
2023-03-15T12:55:22.717Z,4.699
2023-03-15T12:56:22.179Z,5.199
2023-03-15T12:57:23.000Z,4.599
2023-03-15T12:58:22.259Z,8.300
2023-03-15T12:59:22.953Z,4.099
2023-03-15T13:00:23.425Z,4.5
2023-03-15T13:01:23.147Z,4.699
2023-03-15T13:02:29.528Z,3.799
2023-03-15T13:03:22.779Z,4.699
2023-03-15T13:04:22.989Z,4.099
2023-03-15T13:05:23.370Z,4.5
2023-03-15T13:06:23.006Z,4.400
2023-03-15T13:07:22.867Z,4.699
2023-03-15T13:08:22.614Z,3.400
2023-03-15T13:09:22.852Z,4.5
2023-03-15T13:10:22.578Z,5.300
2023-03-15T13:11:23.047Z,3.599
2023-03-15T13:12:22.745Z,5.5
2023-03-15T13:13:23.140Z,5.699
2023-03-15T13:14:22.665Z,3.700
2023-03-15T13:16:22.551Z,3.900
2023-03-15T13:17:22.874Z,4.099
2023-03-15T13:18:22.749Z,4.199
2023-03-15T13:19:22.993Z,3.400
2023-03-15T13:20:23.670Z,3.599
2023-03-15T13:21:22.422Z,2.700
2023-03-15T13:22:22.390Z,2.599
2023-03-15T13:23:23.636Z,3.200
2023-03-15T13:24:22.477Z,4.199
2023-03-15T13:25:22.999Z,2.700
2023-03-15T13:26:22.705Z,3.5
2023-03-15T13:27:22.482Z,2.299
2023-03-15T13:28:21.960Z,2.599
2023-03-15T13:29:22.296Z,3.5
2023-03-15T13:30:23.166Z,2.700
2023-03-15T13:31:22.763Z,3.799
2023-03-15T13:32:23.122Z,3.099
2023-03-15T13:34:22.885Z,5.099
2023-03-15T13:35:23.121Z,3.5
2023-03-15T13:36:22.376Z,3.099
2023-03-15T13:37:22.512Z,2.400
2023-03-15T13:38:22.644Z,4.300
2023-03-15T13:39:22.142Z,5.400
2023-03-15T13:40:22.307Z,3.200
2023-03-15T13:41:22.428Z,3.599
2023-03-15T13:42:22.686Z,3.5
2023-03-15T13:43:23.016Z,3.400
2023-03-15T13:44:22.589Z,3.099
2023-03-15T13:45:22.596Z,3.400
2023-03-15T13:46:22.781Z,2.700